sensor_id;sensor_type;location;lat;lon;timestamp;pressure;altitude;pressure_sealevel;temperature;humidity
17362;BME280;8798;51.938;4.348;2022-09-09T00:02:01;100375.38;;;19.24;70.02
17362;BME280;8798;51.938;4.348;2022-09-09T00:04:32;100369.94;;;19.24;69.90
17362;BME280;8798;51.938;4.348;2022-09-09T00:07:06;100385.22;;;19.25;70.07
17362;BME280;8798;51.938;4.348;2022-09-09T00:09:45;100378.31;;;19.22;70.12
17362;BME280;8798;51.938;4.348;2022-09-09T00:12:18;100390.88;;;19.23;70.21
17362;BME280;8798;51.938;4.348;2022-09-09T00:14:53;100393.84;;;19.22;70.33
17362;BME280;8798;51.938;4.348;2022-09-09T00:17:33;100389.66;;;19.19;70.31
17362;BME280;8798;51.938;4.348;2022-09-09T00:20:12;100394.03;;;19.20;70.41
17362;BME280;8798;51.938;4.348;2022-09-09T00:22:45;100404.94;;;19.20;70.74
17362;BME280;8798;51.938;4.348;2022-09-09T00:25:19;100411.22;;;19.21;70.61
17362;BME280;8798;51.938;4.348;2022-09-09T00:27:50;100426.50;;;19.22;70.64
17362;BME280;8798;51.938;4.348;2022-09-09T00:30:20;100427.56;;;19.21;70.78
17362;BME280;8798;51.938;4.348;2022-09-09T00:32:54;100428.38;;;19.21;70.73
17362;BME280;8798;51.938;4.348;2022-09-09T00:35:27;100429.44;;;19.20;70.87
17362;BME280;8798;51.938;4.348;2022-09-09T00:38:01;100431.34;;;19.20;70.89
17362;BME280;8798;51.938;4.348;2022-09-09T00:40:33;100433.22;;;19.19;70.88
17362;BME280;8798;51.938;4.348;2022-09-09T00:43:15;100444.13;;;19.19;71.02
17362;BME280;8798;51.938;4.348;2022-09-09T00:49:00;100454.78;;;19.21;71.10
17362;BME280;8798;51.938;4.348;2022-09-09T00:51:40;100461.91;;;19.22;70.98
17362;BME280;8798;51.938;4.348;2022-09-09T00:54:29;100469.84;;;19.23;70.99
17362;BME280;8798;51.938;4.348;2022-09-09T00:57:14;100477.41;;;19.21;71.00
17362;BME280;8798;51.938;4.348;2022-09-09T00:59:52;100466.75;;;19.20;71.14
17362;BME280;8798;51.938;4.348;2022-09-09T01:02:26;100467.56;;;19.20;71.19
17362;BME280;8798;51.938;4.348;2022-09-09T01:05:02;100474.09;;;19.19;71.33
17362;BME280;8798;51.938;4.348;2022-09-09T01:07:31;100474.09;;;19.19;71.54
17362;BME280;8798;51.938;4.348;2022-09-09T01:10:00;100461.75;;;19.17;71.20
17362;BME280;8798;51.938;4.348;2022-09-09T01:12:38;100472.41;;;19.18;71.40
17362;BME280;8798;51.938;4.348;2022-09-09T01:15:12;100472.63;;;19.17;71.44
17362;BME280;8798;51.938;4.348;2022-09-09T01:17:53;100473.47;;;19.17;71.20
17362;BME280;8798;51.938;4.348;2022-09-09T01:20:29;100475.56;;;19.15;71.35
17362;BME280;8798;51.938;4.348;2022-09-09T01:23:09;100470.31;;;19.13;71.42
17362;BME280;8798;51.938;4.348;2022-09-09T01:26:12;100461.56;;;19.11;71.34
17362;BME280;8798;51.938;4.348;2022-09-09T01:28:45;100445.88;;;19.07;71.36
17362;BME280;8798;51.938;4.348;2022-09-09T01:31:16;100448.81;;;19.05;71.72
17362;BME280;8798;51.938;4.348;2022-09-09T01:33:45;100450.69;;;19.05;71.60
17362;BME280;8798;51.938;4.348;2022-09-09T01:36:22;100440.00;;;19.03;71.67
17362;BME280;8798;51.938;4.348;2022-09-09T01:38:52;100430.63;;;18.99;71.75
17362;BME280;8798;51.938;4.348;2022-09-09T01:41:22;100440.44;;;19.00;71.52
17362;BME280;8798;51.938;4.348;2022-09-09T01:43:49;100444.00;;;19.01;71.74
17362;BME280;8798;51.938;4.348;2022-09-09T01:46:18;100448.41;;;19.02;71.73
17362;BME280;8798;51.938;4.348;2022-09-09T01:48:50;100453.63;;;19.03;71.71
17362;BME280;8798;51.938;4.348;2022-09-09T01:51:18;100465.13;;;19.05;71.52
17362;BME280;8798;51.938;4.348;2022-09-09T01:53:46;100475.81;;;19.07;71.53
17362;BME280;8798;51.938;4.348;2022-09-09T01:56:28;100478.31;;;19.08;71.75
17362;BME280;8798;51.938;4.348;2022-09-09T01:59:11;100485.66;;;19.08;71.80
17362;BME280;8798;51.938;4.348;2022-09-09T02:01:53;100484.00;;;19.07;71.69
17362;BME280;8798;51.938;4.348;2022-09-09T02:04:35;100480.41;;;19.06;71.80
17362;BME280;8798;51.938;4.348;2022-09-09T02:07:08;100469.97;;;19.03;71.42
17362;BME280;8798;51.938;4.348;2022-09-09T02:09:40;100477.28;;;19.03;71.90
17362;BME280;8798;51.938;4.348;2022-09-09T02:12:14;100478.13;;;19.03;71.72
17362;BME280;8798;51.938;4.348;2022-09-09T02:14:50;100471.84;;;19.03;71.61
17362;BME280;8798;51.938;4.348;2022-09-09T02:17:24;100495.91;;;19.06;71.19
17362;BME280;8798;51.938;4.348;2022-09-09T02:19:57;100495.91;;;19.06;71.93
17362;BME280;8798;51.938;4.348;2022-09-09T02:22:29;100493.19;;;19.06;71.73
17362;BME280;8798;51.938;4.348;2022-09-09T02:25:02;100486.91;;;19.05;71.67
17362;BME280;8798;51.938;4.348;2022-09-09T02:27:33;100476.69;;;19.01;71.55
17362;BME280;8798;51.938;4.348;2022-09-09T02:30:03;100468.75;;;18.99;71.61
17362;BME280;8798;51.938;4.348;2022-09-09T02:32:34;100471.47;;;18.99;71.82
17362;BME280;8798;51.938;4.348;2022-09-09T02:35:06;100466.44;;;18.96;71.61
17362;BME280;8798;51.938;4.348;2022-09-09T02:37:38;100454.94;;;18.94;71.65
17362;BME280;8798;51.938;4.348;2022-09-09T02:40:09;100458.69;;;18.93;71.79
17362;BME280;8798;51.938;4.348;2022-09-09T02:42:44;100457.88;;;18.93;71.37
17362;BME280;8798;51.938;4.348;2022-09-09T02:45:14;100450.75;;;18.91;71.74
17362;BME280;8798;51.938;4.348;2022-09-09T02:47:48;100448.25;;;18.90;71.86
17362;BME280;8798;51.938;4.348;2022-09-09T02:50:22;100447.44;;;18.89;71.86
17362;BME280;8798;51.938;4.348;2022-09-09T02:53:04;100442.41;;;18.86;71.67
17362;BME280;8798;51.938;4.348;2022-09-09T02:55:38;100424.59;;;18.84;71.60
17362;BME280;8798;51.938;4.348;2022-09-09T02:58:10;100426.75;;;18.82;71.61
17362;BME280;8798;51.938;4.348;2022-09-09T03:00:39;100431.13;;;18.83;71.75
17362;BME280;8798;51.938;4.348;2022-09-09T03:03:08;100435.72;;;18.82;71.59
17362;BME280;8798;51.938;4.348;2022-09-09T03:05:36;100429.47;;;18.82;71.58
17362;BME280;8798;51.938;4.348;2022-09-09T03:08:05;100435.94;;;18.81;71.75
17362;BME280;8798;51.938;4.348;2022-09-09T03:10:33;100432.19;;;18.82;71.96
17362;BME280;8798;51.938;4.348;2022-09-09T03:13:01;100428.84;;;18.80;71.89
17362;BME280;8798;51.938;4.348;2022-09-09T03:15:32;100419.22;;;18.77;71.50
17362;BME280;8798;51.938;4.348;2022-09-09T03:18:00;100387.38;;;18.71;71.62
17362;BME280;8798;51.938;4.348;2022-09-09T03:20:29;100387.00;;;18.67;71.90
17362;BME280;8798;51.938;4.348;2022-09-09T03:22:58;100367.75;;;18.62;71.80
17362;BME280;8798;51.938;4.348;2022-09-09T03:25:27;100355.44;;;18.60;71.84
17362;BME280;8798;51.938;4.348;2022-09-09T03:27:55;100352.09;;;18.58;71.94
17362;BME280;8798;51.938;4.348;2022-09-09T03:30:23;100338.28;;;18.53;71.81
17362;BME280;8798;51.938;4.348;2022-09-09T03:32:52;100327.84;;;18.50;71.91
17362;BME280;8798;51.938;4.348;2022-09-09T03:35:21;100316.56;;;18.46;71.94
17362;BME280;8798;51.938;4.348;2022-09-09T03:37:49;100327.22;;;18.47;71.63
17362;BME280;8798;51.938;4.348;2022-09-09T03:40:16;100337.06;;;18.48;71.99
17362;BME280;8798;51.938;4.348;2022-09-09T03:42:45;100344.19;;;18.50;71.63
17362;BME280;8798;51.938;4.348;2022-09-09T03:45:14;100354.81;;;18.51;71.76
17362;BME280;8798;51.938;4.348;2022-09-09T03:47:43;100362.53;;;18.54;72.00
17362;BME280;8798;51.938;4.348;2022-09-09T03:50:12;100360.25;;;18.51;71.84
17362;BME280;8798;51.938;4.348;2022-09-09T03:52:40;100356.09;;;18.48;71.70
17362;BME280;8798;51.938;4.348;2022-09-09T03:55:09;100350.03;;;18.46;71.79
17362;BME280;8798;51.938;4.348;2022-09-09T03:57:36;100349.19;;;18.46;71.89
17362;BME280;8798;51.938;4.348;2022-09-09T04:00:06;100356.53;;;18.45;72.18
17362;BME280;8798;51.938;4.348;2022-09-09T04:02:34;100358.19;;;18.46;72.22
17362;BME280;8798;51.938;4.348;2022-09-09T04:05:02;100360.91;;;18.46;71.68
17362;BME280;8798;51.938;4.348;2022-09-09T04:07:31;100365.53;;;18.46;72.02
17362;BME280;8798;51.938;4.348;2022-09-09T04:09:59;100360.28;;;18.44;71.99
17362;BME280;8798;51.938;4.348;2022-09-09T04:12:27;100348.81;;;18.42;71.92
17362;BME280;8798;51.938;4.348;2022-09-09T04:14:54;100354.44;;;18.41;71.95
17362;BME280;8798;51.938;4.348;2022-09-09T04:17:23;100351.09;;;18.39;71.68
17362;BME280;8798;51.938;4.348;2022-09-09T04:19:51;100333.34;;;18.36;71.89
17362;BME280;8798;51.938;4.348;2022-09-09T04:22:18;100324.56;;;18.34;72.00
17362;BME280;8798;51.938;4.348;2022-09-09T04:24:47;100325.63;;;18.33;71.75
17362;BME280;8798;51.938;4.348;2022-09-09T04:27:15;100320.63;;;18.30;71.72
17362;BME280;8798;51.938;4.348;2022-09-09T04:29:43;100318.94;;;18.29;72.18
17362;BME280;8798;51.938;4.348;2022-09-09T04:32:10;100325.19;;;18.30;71.78
17362;BME280;8798;51.938;4.348;2022-09-09T04:34:38;100329.59;;;18.31;71.63
17362;BME280;8798;51.938;4.348;2022-09-09T04:37:07;100327.31;;;18.27;72.28
17362;BME280;8798;51.938;4.348;2022-09-09T04:39:36;100309.56;;;18.25;72.27
17362;BME280;8798;51.938;4.348;2022-09-09T04:42:06;100296.81;;;18.19;72.30
17362;BME280;8798;51.938;4.348;2022-09-09T04:44:33;100276.75;;;18.13;72.01
17362;BME280;8798;51.938;4.348;2022-09-09T04:47:02;100276.75;;;18.13;72.14
17362;BME280;8798;51.938;4.348;2022-09-09T04:49:29;100276.97;;;18.12;72.16
17362;BME280;8798;51.938;4.348;2022-09-09T04:51:57;100283.84;;;18.14;71.87
17362;BME280;8798;51.938;4.348;2022-09-09T04:54:25;100292.00;;;18.14;72.25
17362;BME280;8798;51.938;4.348;2022-09-09T04:56:54;100292.25;;;18.13;72.25
17362;BME280;8798;51.938;4.348;2022-09-09T04:59:23;100288.91;;;18.11;72.28
17362;BME280;8798;51.938;4.348;2022-09-09T05:01:51;100276.34;;;18.10;72.05
17362;BME280;8798;51.938;4.348;2022-09-09T05:04:21;100273.22;;;18.06;72.09
17362;BME280;8798;51.938;4.348;2022-09-09T05:06:49;100273.44;;;18.04;72.21
17362;BME280;8798;51.938;4.348;2022-09-09T05:09:17;100279.69;;;18.05;72.37
17362;BME280;8798;51.938;4.348;2022-09-09T05:11:44;100267.59;;;18.01;72.38
17362;BME280;8798;51.938;4.348;2022-09-09T05:14:12;100268.44;;;18.01;72.60
17362;BME280;8798;51.938;4.348;2022-09-09T05:16:43;100280.97;;;18.02;72.30
17362;BME280;8798;51.938;4.348;2022-09-09T05:19:11;100286.41;;;18.02;72.43
17362;BME280;8798;51.938;4.348;2022-09-09T05:21:39;100300.63;;;18.04;72.60
17362;BME280;8798;51.938;4.348;2022-09-09T05:24:07;100299.59;;;18.05;72.69
17362;BME280;8798;51.938;4.348;2022-09-09T05:26:35;100313.56;;;18.09;72.35
17362;BME280;8798;51.938;4.348;2022-09-09T05:29:03;100333.22;;;18.11;72.78
17362;BME280;8798;51.938;4.348;2022-09-09T05:31:31;100318.19;;;18.09;72.56
17362;BME280;8798;51.938;4.348;2022-09-09T05:34:00;100323.63;;;18.09;72.84
17362;BME280;8798;51.938;4.348;2022-09-09T05:36:28;100335.13;;;18.11;72.64
17362;BME280;8798;51.938;4.348;2022-09-09T05:38:56;100338.66;;;18.11;72.72
17362;BME280;8798;51.938;4.348;2022-09-09T05:41:24;100360.81;;;18.15;72.61
17362;BME280;8798;51.938;4.348;2022-09-09T05:43:52;100382.97;;;18.18;72.65
17362;BME280;8798;51.938;4.348;2022-09-09T05:46:21;100390.06;;;18.19;72.39
17362;BME280;8798;51.938;4.348;2022-09-09T05:48:50;100391.97;;;18.19;72.71
17362;BME280;8798;51.938;4.348;2022-09-09T05:51:20;100377.53;;;18.18;72.72
17362;BME280;8798;51.938;4.348;2022-09-09T05:53:48;100400.75;;;18.21;72.73
17362;BME280;8798;51.938;4.348;2022-09-09T05:56:18;100409.53;;;18.23;72.61
17362;BME280;8798;51.938;4.348;2022-09-09T05:58:46;100422.69;;;18.26;72.72
17362;BME280;8798;51.938;4.348;2022-09-09T06:01:17;100441.94;;;18.31;72.60
17362;BME280;8798;51.938;4.348;2022-09-09T06:03:47;100456.16;;;18.33;72.84
17362;BME280;8798;51.938;4.348;2022-09-09T06:06:16;100466.84;;;18.35;72.76
17362;BME280;8798;51.938;4.348;2022-09-09T06:08:50;100478.94;;;18.39;72.53
17362;BME280;8798;51.938;4.348;2022-09-09T06:11:20;100476.22;;;18.39;72.61
17362;BME280;8798;51.938;4.348;2022-09-09T06:13:49;100497.56;;;18.42;72.74
17362;BME280;8798;51.938;4.348;2022-09-09T06:16:18;100500.91;;;18.44;72.81
17362;BME280;8798;51.938;4.348;2022-09-09T06:18:47;100507.16;;;18.44;72.86
17362;BME280;8798;51.938;4.348;2022-09-09T06:21:17;100519.50;;;18.47;72.41
17362;BME280;8798;51.938;4.348;2022-09-09T06:23:45;100506.97;;;18.46;72.57
17362;BME280;8798;51.938;4.348;2022-09-09T06:26:16;100519.50;;;18.47;72.90
17362;BME280;8798;51.938;4.348;2022-09-09T06:28:45;100525.59;;;18.49;72.68
17362;BME280;8798;51.938;4.348;2022-09-09T06:31:16;100526.44;;;18.50;72.84
17362;BME280;8798;51.938;4.348;2022-09-09T06:33:54;100526.44;;;18.50;72.89
17362;BME280;8798;51.938;4.348;2022-09-09T06:36:23;100518.47;;;18.48;72.78
17362;BME280;8798;51.938;4.348;2022-09-09T06:38:51;100518.69;;;18.46;72.88
17362;BME280;8798;51.938;4.348;2022-09-09T06:41:22;100504.44;;;18.44;72.69
17362;BME280;8798;51.938;4.348;2022-09-09T06:43:50;100501.97;;;18.43;72.72
17362;BME280;8798;51.938;4.348;2022-09-09T06:46:18;100504.44;;;18.44;72.52
17362;BME280;8798;51.938;4.348;2022-09-09T06:48:48;100497.34;;;18.43;72.59
17362;BME280;8798;51.938;4.348;2022-09-09T06:51:17;100502.78;;;18.43;72.80
17362;BME280;8798;51.938;4.348;2022-09-09T06:53:50;100501.72;;;18.44;72.90
17362;BME280;8798;51.938;4.348;2022-09-09T06:56:22;100500.28;;;18.42;72.72
17362;BME280;8798;51.938;4.348;2022-09-09T06:58:51;100508.84;;;18.45;72.79
17362;BME280;8798;51.938;4.348;2022-09-09T07:01:22;100514.31;;;18.45;72.78
17362;BME280;8798;51.938;4.348;2022-09-09T07:03:51;100517.66;;;18.47;72.86
17362;BME280;8798;51.938;4.348;2022-09-09T07:06:22;100520.38;;;18.47;72.59
17362;BME280;8798;51.938;4.348;2022-09-09T07:08:51;100519.50;;;18.47;72.74
17362;BME280;8798;51.938;4.348;2022-09-09T07:11:25;100500.91;;;18.44;72.72
17362;BME280;8798;51.938;4.348;2022-09-09T07:13:53;100506.16;;;18.45;72.76
17362;BME280;8798;51.938;4.348;2022-09-09T07:16:22;100504.44;;;18.44;72.80
17362;BME280;8798;51.938;4.348;2022-09-09T07:18:51;100511.59;;;18.45;72.72
17362;BME280;8798;51.938;4.348;2022-09-09T07:21:25;100517.66;;;18.47;72.48
17362;BME280;8798;51.938;4.348;2022-09-09T07:23:53;100523.91;;;18.48;72.68
17362;BME280;8798;51.938;4.348;2022-09-09T07:26:24;100536.06;;;18.52;72.88
17362;BME280;8798;51.938;4.348;2022-09-09T07:28:53;100543.16;;;18.53;72.89
17362;BME280;8798;51.938;4.348;2022-09-09T07:31:24;100545.69;;;18.55;72.65
17362;BME280;8798;51.938;4.348;2022-09-09T07:33:53;100555.31;;;18.57;72.74
17362;BME280;8798;51.938;4.348;2022-09-09T07:36:22;100572.88;;;18.61;72.76
17362;BME280;8798;51.938;4.348;2022-09-09T07:38:57;100589.38;;;18.66;72.60
17362;BME280;8798;51.938;4.348;2022-09-09T07:41:27;100612.41;;;18.70;72.65
17362;BME280;8798;51.938;4.348;2022-09-09T07:43:56;100608.63;;;18.72;72.73
17362;BME280;8798;51.938;4.348;2022-09-09T07:46:25;100598.19;;;18.68;72.75
17362;BME280;8798;51.938;4.348;2022-09-09T07:48:55;100600.06;;;18.68;72.77
17362;BME280;8798;51.938;4.348;2022-09-09T07:51:25;100610.53;;;18.71;72.63
17362;BME280;8798;51.938;4.348;2022-09-09T07:53:54;100611.16;;;18.73;72.36
17362;BME280;8798;51.938;4.348;2022-09-09T07:56:26;100617.22;;;18.75;72.58
17362;BME280;8798;51.938;4.348;2022-09-09T07:58:55;100622.47;;;18.77;72.67
17362;BME280;8798;51.938;4.348;2022-09-09T08:01:27;100629.63;;;18.78;72.73
17362;BME280;8798;51.938;4.348;2022-09-09T08:03:57;100633.78;;;18.80;72.52
17362;BME280;8798;51.938;4.348;2022-09-09T08:06:28;100641.75;;;18.82;72.73
17362;BME280;8798;51.938;4.348;2022-09-09T08:08:56;100645.94;;;18.84;72.61
17362;BME280;8798;51.938;4.348;2022-09-09T08:11:27;100648.66;;;18.84;72.44
17362;BME280;8798;51.938;4.348;2022-09-09T08:13:55;100636.09;;;18.83;72.28
17362;BME280;8798;51.938;4.348;2022-09-09T08:16:29;100639.63;;;18.84;72.46
17362;BME280;8798;51.938;4.348;2022-09-09T08:18:58;100617.47;;;18.80;72.59
17362;BME280;8798;51.938;4.348;2022-09-09T08:21:28;100623.53;;;18.82;72.28
17362;BME280;8798;51.938;4.348;2022-09-09T08:23:57;100643.22;;;18.84;72.27
17362;BME280;8798;51.938;4.348;2022-09-09T08:26:28;100648.25;;;18.87;72.49
17362;BME280;8798;51.938;4.348;2022-09-09T08:28:58;100665.81;;;18.91;72.34
17362;BME280;8798;51.938;4.348;2022-09-09T08:31:27;100670.84;;;18.95;72.44
17362;BME280;8798;51.938;4.348;2022-09-09T08:33:56;100675.22;;;18.96;72.34
17362;BME280;8798;51.938;4.348;2022-09-09T08:36:28;100665.16;;;18.96;72.47
17362;BME280;8798;51.938;4.348;2022-09-09T08:38:57;100690.09;;;19.00;72.25
17362;BME280;8798;51.938;4.348;2022-09-09T08:44:43;100698.25;;;19.06;72.50
17362;BME280;8798;51.938;4.348;2022-09-09T08:47:18;100698.25;;;19.06;72.20
17362;BME280;8798;51.938;4.348;2022-09-09T08:50:01;100704.31;;;19.08;72.16
17362;BME280;8798;51.938;4.348;2022-09-09T08:52:38;100701.84;;;19.07;72.29
17362;BME280;8798;51.938;4.348;2022-09-09T08:55:18;100694.94;;;19.04;72.12
17362;BME280;8798;51.938;4.348;2022-09-09T08:57:52;100665.59;;;19.00;72.10
17362;BME280;8798;51.938;4.348;2022-09-09T09:00:21;100661.19;;;18.99;71.89
17362;BME280;8798;51.938;4.348;2022-09-09T09:02:56;100665.38;;;19.01;72.03
17362;BME280;8798;51.938;4.348;2022-09-09T09:05:33;100678.34;;;19.06;72.26
17362;BME280;8798;51.938;4.348;2022-09-09T09:08:10;100699.50;;;19.10;72.16
17362;BME280;8798;51.938;4.348;2022-09-09T09:10:45;100707.47;;;19.12;72.16
17362;BME280;8798;51.938;4.348;2022-09-09T09:13:20;100727.38;;;19.19;71.97
17362;BME280;8798;51.938;4.348;2022-09-09T09:15:54;100738.88;;;19.21;72.12
17362;BME280;8798;51.938;4.348;2022-09-09T09:18:23;100744.75;;;19.25;72.09
17362;BME280;8798;51.938;4.348;2022-09-09T09:20:57;100760.66;;;19.28;71.74
17362;BME280;8798;51.938;4.348;2022-09-09T09:23:34;100776.38;;;19.32;72.06
17362;BME280;8798;51.938;4.348;2022-09-09T09:26:07;100795.44;;;19.39;71.84
17362;BME280;8798;51.938;4.348;2022-09-09T09:28:39;100812.19;;;19.43;71.99
17362;BME280;8798;51.938;4.348;2022-09-09T09:31:10;100807.38;;;19.45;72.01
17362;BME280;8798;51.938;4.348;2022-09-09T09:33:45;100786.00;;;19.42;72.10
17362;BME280;8798;51.938;4.348;2022-09-09T09:36:15;100772.19;;;19.37;72.11
17362;BME280;8798;51.938;4.348;2022-09-09T09:38:55;100748.31;;;19.32;72.23
17362;BME280;8798;51.938;4.348;2022-09-09T09:41:42;100726.94;;;19.29;72.17
17362;BME280;8798;51.938;4.348;2022-09-09T09:44:23;100726.09;;;19.28;72.09
17362;BME280;8798;51.938;4.348;2022-09-09T09:46:51;100712.06;;;19.25;72.29
17362;BME280;8798;51.938;4.348;2022-09-09T09:49:19;100677.50;;;19.19;72.20
17362;BME280;8798;51.938;4.348;2022-09-09T09:51:47;100647.56;;;19.12;72.49
17362;BME280;8798;51.938;4.348;2022-09-09T09:54:27;100622.00;;;19.06;72.61
17362;BME280;8798;51.938;4.348;2022-09-09T09:56:56;100565.31;;;18.90;72.28
17362;BME280;8798;51.938;4.348;2022-09-09T09:59:36;100536.22;;;18.84;72.45
17362;BME280;8798;51.938;4.348;2022-09-09T10:02:19;100530.16;;;18.82;72.46
17362;BME280;8798;51.938;4.348;2022-09-09T10:04:47;100518.03;;;18.78;72.71
17362;BME280;8798;51.938;4.348;2022-09-09T10:07:18;100521.56;;;18.78;72.79
17362;BME280;8798;51.938;4.348;2022-09-09T10:09:50;100489.97;;;18.70;72.84
17362;BME280;8798;51.938;4.348;2022-09-09T10:12:26;100446.25;;;18.59;72.87
17362;BME280;8798;51.938;4.348;2022-09-09T10:15:01;100421.81;;;18.52;73.00
17362;BME280;8798;51.938;4.348;2022-09-09T10:17:36;100394.63;;;18.45;73.37
17362;BME280;8798;51.938;4.348;2022-09-09T10:20:27;100399.00;;;18.46;73.71
17362;BME280;8798;51.938;4.348;2022-09-09T10:23:08;100420.34;;;18.50;73.77
17362;BME280;8798;51.938;4.348;2022-09-09T10:25:59;100457.38;;;18.57;73.66
17362;BME280;8798;51.938;4.348;2022-09-09T10:28:52;100491.66;;;18.65;73.97
17362;BME280;8798;51.938;4.348;2022-09-09T10:31:34;100513.81;;;18.68;74.12
17362;BME280;8798;51.938;4.348;2022-09-09T10:34:12;100539.34;;;18.74;74.05
17362;BME280;8798;51.938;4.348;2022-09-09T10:36:46;100565.56;;;18.82;73.91
17362;BME280;8798;51.938;4.348;2022-09-09T10:39:20;100618.06;;;18.96;74.17
17362;BME280;8798;51.938;4.348;2022-09-09T10:42:00;100687.59;;;19.11;74.44
17362;BME280;8798;51.938;4.348;2022-09-09T10:44:42;100737.84;;;19.22;74.51
17362;BME280;8798;51.938;4.348;2022-09-09T10:47:31;100770.28;;;19.30;74.64
17362;BME280;8798;51.938;4.348;2022-09-09T10:50:18;100803.81;;;19.38;74.45
17362;BME280;8798;51.938;4.348;2022-09-09T10:52:56;100830.84;;;19.46;74.53
17362;BME280;8798;51.938;4.348;2022-09-09T10:55:35;100853.47;;;19.53;74.76
17362;BME280;8798;51.938;4.348;2022-09-09T10:58:05;100868.38;;;19.57;74.48
17362;BME280;8798;51.938;4.348;2022-09-09T11:00:38;100886.00;;;19.61;74.88
17362;BME280;8798;51.938;4.348;2022-09-09T11:03:16;100886.41;;;19.65;74.96
17362;BME280;8798;51.938;4.348;2022-09-09T11:05:51;100890.63;;;19.67;74.82
17362;BME280;8798;51.938;4.348;2022-09-09T11:08:21;100887.91;;;19.67;75.10
17362;BME280;8798;51.938;4.348;2022-09-09T11:10:54;100884.97;;;19.69;74.85
17362;BME280;8798;51.938;4.348;2022-09-09T11:13:32;100882.25;;;19.69;74.79
17362;BME280;8798;51.938;4.348;2022-09-09T11:16:06;100884.75;;;19.70;74.88
17362;BME280;8798;51.938;4.348;2022-09-09T11:18:42;100882.88;;;19.71;75.07
17362;BME280;8798;51.938;4.348;2022-09-09T11:21:18;100841.13;;;19.64;74.86
17362;BME280;8798;51.938;4.348;2022-09-09T11:23:52;100813.66;;;19.59;74.92
17362;BME280;8798;51.938;4.348;2022-09-09T11:26:28;100793.13;;;19.56;74.90
17362;BME280;8798;51.938;4.348;2022-09-09T11:29:09;100779.91;;;19.53;74.82
17362;BME280;8798;51.938;4.348;2022-09-09T11:31:45;100770.06;;;19.52;74.84
17362;BME280;8798;51.938;4.348;2022-09-09T11:34:25;100764.63;;;19.52;74.91
17362;BME280;8798;51.938;4.348;2022-09-09T11:37:04;100759.16;;;19.52;74.77
17362;BME280;8798;51.938;4.348;2022-09-09T11:39:57;100751.19;;;19.50;74.99
17362;BME280;8798;51.938;4.348;2022-09-09T11:42:28;100746.56;;;19.51;74.78
17362;BME280;8798;51.938;4.348;2022-09-09T11:44:56;100751.63;;;19.54;75.02
17362;BME280;8798;51.938;4.348;2022-09-09T11:47:26;100780.97;;;19.59;74.89
17362;BME280;8798;51.938;4.348;2022-09-09T11:50:09;100787.63;;;19.63;74.81
17362;BME280;8798;51.938;4.348;2022-09-09T11:52:40;100771.72;;;19.60;75.08
17362;BME280;8798;51.938;4.348;2022-09-09T11:55:24;100757.47;;;19.58;74.92
17362;BME280;8798;51.938;4.348;2022-09-09T11:57:57;100733.56;;;19.53;75.18
17362;BME280;8798;51.938;4.348;2022-09-09T12:00:34;100739.88;;;19.53;75.11
17362;BME280;8798;51.938;4.348;2022-09-09T12:03:03;100742.38;;;19.55;75.09
17362;BME280;8798;51.938;4.348;2022-09-09T12:05:40;100756.19;;;19.60;75.38
17362;BME280;8798;51.938;4.348;2022-09-09T12:08:10;100791.63;;;19.67;75.31
17362;BME280;8798;51.938;4.348;2022-09-09T12:10:53;100800.84;;;19.72;75.42
17362;BME280;8798;51.938;4.348;2022-09-09T12:13:23;100810.72;;;19.73;75.30
17362;BME280;8798;51.938;4.348;2022-09-09T12:15:52;100815.13;;;19.74;75.44
17362;BME280;8798;51.938;4.348;2022-09-09T12:18:25;100801.50;;;19.74;75.48
17362;BME280;8798;51.938;4.348;2022-09-09T12:21:02;100804.22;;;19.74;75.34
17362;BME280;8798;51.938;4.348;2022-09-09T12:23:40;100793.31;;;19.74;75.46
17362;BME280;8798;51.938;4.348;2022-09-09T12:26:25;100801.50;;;19.74;75.51
17362;BME280;8798;51.938;4.348;2022-09-09T12:29:06;100801.06;;;19.77;75.30
17362;BME280;8798;51.938;4.348;2022-09-09T12:31:44;100801.06;;;19.77;75.37
17362;BME280;8798;51.938;4.348;2022-09-09T12:34:16;100796.44;;;19.78;75.52
17362;BME280;8798;51.938;4.348;2022-09-09T12:36:52;100795.59;;;19.77;75.52
17362;BME280;8798;51.938;4.348;2022-09-09T12:39:28;100780.50;;;19.75;75.43
17362;BME280;8798;51.938;4.348;2022-09-09T12:41:58;100769.84;;;19.73;75.35
17362;BME280;8798;51.938;4.348;2022-09-09T12:44:26;100769.59;;;19.75;75.52
17362;BME280;8798;51.938;4.348;2022-09-09T12:46:56;100789.75;;;19.81;75.54
17362;BME280;8798;51.938;4.348;2022-09-09T12:49:30;100821.59;;;19.87;75.54
17362;BME280;8798;51.938;4.348;2022-09-09T12:52:03;100845.91;;;19.95;75.88
17362;BME280;8798;51.938;4.348;2022-09-09T12:54:34;100878.19;;;20.05;75.36
17362;BME280;8798;51.938;4.348;2022-09-09T12:57:02;100900.81;;;20.12;75.46
17362;BME280;8798;51.938;4.348;2022-09-09T12:59:36;100937.75;;;20.21;75.45
17362;BME280;8798;51.938;4.348;2022-09-09T13:02:16;100977.41;;;20.30;75.44
17362;BME280;8798;51.938;4.348;2022-09-09T13:04:45;101003.41;;;20.39;75.47
17362;BME280;8798;51.938;4.348;2022-09-09T13:07:15;101027.94;;;20.46;75.40
17362;BME280;8798;51.938;4.348;2022-09-09T13:09:43;101051.66;;;20.52;75.32
17362;BME280;8798;51.938;4.348;2022-09-09T13:12:14;101058.63;;;20.55;75.50
17362;BME280;8798;51.938;4.348;2022-09-09T13:14:44;101045.00;;;20.55;75.33
17362;BME280;8798;51.938;4.348;2022-09-09T13:17:20;101002.31;;;20.47;75.26
17362;BME280;8798;51.938;4.348;2022-09-09T13:19:49;100964.34;;;20.39;75.25
17362;BME280;8798;51.938;4.348;2022-09-09T13:22:29;100910.03;;;20.31;75.21
17362;BME280;8798;51.938;4.348;2022-09-09T13:25:03;100887.16;;;20.25;75.09
17362;BME280;8798;51.938;4.348;2022-09-09T13:27:33;100865.53;;;20.24;75.00
17362;BME280;8798;51.938;4.348;2022-09-09T13:30:20;100838.28;;;20.17;75.24
17362;BME280;8798;51.938;4.348;2022-09-09T13:33:03;100783.56;;;20.05;74.96
17362;BME280;8798;51.938;4.348;2022-09-09T13:35:31;100721.09;;;19.90;75.12